Raymond Croze — FNWX — position and weather

sailwx.info

Track history (hours):
 
Tides and Currents Weather Stations Pressure Air Temp Water Temp Dewpoint Dewpoint Depression Visibility Wind Speed Wind Dir Waves Ship Positions

Raymond Croze

Last reported at 2016-Apr-29 17:33 UTC. Time now 2016-Apr-29 17:45 UTC.
Position N 38°20' E 011°03'.

Length 107 m; beam 18 m.

Type: Ship. MMSI: 226290000.

Date/timePositionNaut miles runAvg speedWind from/ knotsBaromVisibWave heightAir tempDewpointWater temp
2016-Apr-29 17:33N 38°20' E 011°03'1413.9
2016-Apr-29 16:33N 38°07' E 011°09'11 0.3
2016-Apr-28 04:25N 37°57' E 011°14'0 0.4
2016-Apr-28 03:13N 37°57' E 011°14'1 0.9
2016-Apr-28 02:33N 37°57' E 011°14'0 0.3
2016-Apr-28 01:22N 37°56' E 011°14'0 0.0
2016-Apr-28 00:32N 37°56' E 011°14'0 0.1
2016-Apr-27 23:05N 37°56' E 011°14'0 0.2
2016-Apr-27 22:31N 37°56' E 011°14'1 0.1
2016-Apr-27 16:33N 37°57' E 011°14'0 0.2
2016-Apr-27 14:30N 37°56' E 011°13'  
2016-Apr-23 06:27N 37°44' E 011°44'4411.2
2016-Apr-23 02:31N 37°24' E 012°33'1311.7
2016-Apr-23 01:25N 37°18' E 012°47'4411.2
2016-Apr-22 21:32N 36°58' E 013°36'1111.8
2016-Apr-22 20:33N 36°52' E 013°49'1211.5
2016-Apr-22 19:33N 36°47' E 014°01'1111.4
2016-Apr-22 18:33N 36°43' E 014°15'1111.1
2016-Apr-22 17:33N 36°40' E 014°28'1110.8
2016-Apr-22 16:33N 36°37' E 014°41'  
2016-Apr-20 10:11N 36°36' E 014°49'711.0
2016-Apr-20 09:33N 36°37' E 014°40'1111.2
2016-Apr-20 08:33N 36°39' E 014°27'1111.4
2016-Apr-20 07:33N 36°42' E 014°13'1413.6
2016-Apr-20 06:34N 36°47' E 013°57'1313.2
2016-Apr-20 05:33N 36°53' E 013°42'13212.7
2016-Apr-19 19:10N 37°56' E 011°16'  
Track history (hours):
 
Tides and Currents Weather Stations Pressure Air Temp Water Temp Dewpoint Dewpoint Depression Visibility Wind Speed Wind Dir Waves Ship Positions

Raymond Croze

Last reported at 2016-Apr-29 17:33 UTC. Time now 2016-Apr-29 17:45 UTC.
Position N 38°20' E 011°03'.

Length 107 m; beam 18 m.

Type: Ship. MMSI: 226290000.

Date/timePositionNaut miles runAvg speedWind from/ knotsBaromVisibWave heightAir tempDewpointWater temp
2016-Apr-29 17:33N 38°20' E 011°03'1413.9
2016-Apr-29 16:33N 38°07' E 011°09'11 0.3
2016-Apr-28 04:25N 37°57' E 011°14'0 0.4
2016-Apr-28 03:13N 37°57' E 011°14'1 0.9
2016-Apr-28 02:33N 37°57' E 011°14'0 0.3
2016-Apr-28 01:22N 37°56' E 011°14'0 0.0
2016-Apr-28 00:32N 37°56' E 011°14'0 0.1
2016-Apr-27 23:05N 37°56' E 011°14'0 0.2
2016-Apr-27 22:31N 37°56' E 011°14'1 0.1
2016-Apr-27 16:33N 37°57' E 011°14'0 0.2
2016-Apr-27 14:30N 37°56' E 011°13'  
2016-Apr-23 06:27N 37°44' E 011°44'4411.2
2016-Apr-23 02:31N 37°24' E 012°33'1311.7
2016-Apr-23 01:25N 37°18' E 012°47'4411.2
2016-Apr-22 21:32N 36°58' E 013°36'1111.8
2016-Apr-22 20:33N 36°52' E 013°49'1211.5
2016-Apr-22 19:33N 36°47' E 014°01'1111.4
2016-Apr-22 18:33N 36°43' E 014°15'1111.1
2016-Apr-22 17:33N 36°40' E 014°28'1110.8
2016-Apr-22 16:33N 36°37' E 014°41'  
2016-Apr-20 10:11N 36°36' E 014°49'711.0
2016-Apr-20 09:33N 36°37' E 014°40'1111.2
2016-Apr-20 08:33N 36°39' E 014°27'1111.4
2016-Apr-20 07:33N 36°42' E 014°13'1413.6
2016-Apr-20 06:34N 36°47' E 013°57'1313.2
2016-Apr-20 05:33N 36°53' E 013°42'13212.7
2016-Apr-19 19:10N 37°56' E 011°16'  

Dump ship's entire track history